createdAt,value
2018-11-20T00:02:46.131Z,6.30
2018-11-20T00:05:21.108Z,6.25
2018-11-20T00:09:59.421Z,6.14
2018-11-20T00:12:37.382Z,6.18
2018-11-20T00:15:12.592Z,6.13
2018-11-20T00:17:55.553Z,6.21
2018-11-20T00:22:33.232Z,6.21
2018-11-20T00:25:09.045Z,6.11
2018-11-20T00:27:49.040Z,6.23
2018-11-20T00:30:22.862Z,6.22
2018-11-20T00:32:56.936Z,6.22
2018-11-20T00:35:29.980Z,6.25
2018-11-20T00:38:05.777Z,6.48
2018-11-20T00:40:39.823Z,6.59
2018-11-20T00:43:21.665Z,6.67
2018-11-20T00:45:55.617Z,6.63
2018-11-20T00:48:29.569Z,6.55
2018-11-20T00:51:03.756Z,6.51
2018-11-20T00:54:38.258Z,6.60
2018-11-20T00:58:11.007Z,6.52
2018-11-20T01:00:46.789Z,6.52
2018-11-20T01:03:20.721Z,6.58
2018-11-20T01:06:57.640Z,6.46
2018-11-20T01:09:32.607Z,6.34
2018-11-20T01:12:39.896Z,6.24
2018-11-20T01:15:16.772Z,6.25
2018-11-20T01:18:54.325Z,6.32
2018-11-20T01:23:34.638Z,6.43
2018-11-20T01:26:14.605Z,6.47
2018-11-20T01:30:50.894Z,6.52
2018-11-20T01:33:26.908Z,6.49
2018-11-20T01:38:03.200Z,6.47
2018-11-20T01:41:39.778Z,6.45
2018-11-20T01:45:17.395Z,6.51
2018-11-20T01:47:59.265Z,6.63
2018-11-20T01:50:33.193Z,6.81
2018-11-20T01:53:07.354Z,6.78
2018-11-20T01:55:43.371Z,6.87
2018-11-20T01:58:22.405Z,6.98
2018-11-20T02:00:56.501Z,7.07
2018-11-20T02:03:30.584Z,6.94
2018-11-20T02:06:04.932Z,6.84
2018-11-20T02:09:15.056Z,6.99
2018-11-20T02:12:05.173Z,7.10
2018-11-20T02:14:41.217Z,6.97
2018-11-20T02:17:50.966Z,6.90
2018-11-20T02:20:25.087Z,6.82
2018-11-20T02:22:58.988Z,6.53
2018-11-20T02:25:34.746Z,6.35
2018-11-20T02:29:14.393Z,6.25
2018-11-20T02:32:19.746Z,6.08
2018-11-20T02:34:52.793Z,6.25
2018-11-20T02:37:32.791Z,6.43
2018-11-20T02:40:10.641Z,6.58
2018-11-20T02:42:44.578Z,6.68
2018-11-20T02:45:18.746Z,6.79
2018-11-20T02:48:51.385Z,6.89
2018-11-20T02:52:23.390Z,6.90
2018-11-20T02:54:57.385Z,6.96
2018-11-20T02:58:03.391Z,6.78
2018-11-20T03:00:37.205Z,6.59
2018-11-20T03:05:14.099Z,6.45
2018-11-20T03:09:53.394Z,6.24
2018-11-20T03:12:27.273Z,6.18
2018-11-20T03:15:00.340Z,6.07
2018-11-20T03:19:36.990Z,6.08
2018-11-20T03:22:14.984Z,6.15
2018-11-20T03:24:48.992Z,6.23
2018-11-20T03:27:22.925Z,6.40
2018-11-20T03:32:16.791Z,6.46
2018-11-20T03:35:20.933Z,6.71
2018-11-20T03:37:54.860Z,6.70
2018-11-20T03:41:30.563Z,6.67
2018-11-20T03:44:12.345Z,6.46
2018-11-20T03:46:48.316Z,6.37
2018-11-20T03:49:22.303Z,6.41
2018-11-20T03:52:00.117Z,6.54
2018-11-20T03:54:51.177Z,6.50
2018-11-20T03:57:36.737Z,6.59
2018-11-20T04:00:13.394Z,6.71
2018-11-20T04:02:52.403Z,6.67
2018-11-20T04:05:40.664Z,6.69
2018-11-20T04:10:18.282Z,6.85
2018-11-20T04:13:50.003Z,7.01
2018-11-20T04:16:23.988Z,7.01
2018-11-20T04:19:03.841Z,6.85
2018-11-20T04:21:42.845Z,7.28
2018-11-20T04:24:16.863Z,7.48
2018-11-20T04:27:53.240Z,7.54
2018-11-20T04:32:41.524Z,7.16
2018-11-20T04:35:16.762Z,6.80
2018-11-20T04:37:51.492Z,6.69
2018-11-20T04:40:33.321Z,6.87
2018-11-20T04:44:05.000Z,7.25
2018-11-20T04:46:39.845Z,6.78
2018-11-20T04:50:11.817Z,6.85
2018-11-20T04:53:00.169Z,6.70
2018-11-20T04:55:48.328Z,6.68
2018-11-20T04:58:23.709Z,6.54
2018-11-20T05:03:01.200Z,6.45
2018-11-20T05:05:37.037Z,6.54
2018-11-20T05:08:11.341Z,6.48
2018-11-20T05:10:49.182Z,6.61
2018-11-20T05:13:24.091Z,6.62
2018-11-20T05:16:13.093Z,6.61
2018-11-20T05:18:49.984Z,6.56
2018-11-20T05:21:23.943Z,6.60
2018-11-20T05:24:00.888Z,6.56
2018-11-20T05:27:34.366Z,6.82
2018-11-20T05:30:07.487Z,7.16
2018-11-20T05:32:43.492Z,7.34
2018-11-20T05:35:17.663Z,7.00
2018-11-20T05:37:52.557Z,6.99
2018-11-20T05:41:24.234Z,7.03
2018-11-20T05:44:01.285Z,7.13
2018-11-20T05:48:38.726Z,7.14
2018-11-20T05:51:17.688Z,7.36
2018-11-20T05:53:53.644Z,7.41
2018-11-20T05:56:27.459Z,7.23
2018-11-20T05:59:01.518Z,7.20
2018-11-20T06:01:36.415Z,7.26
2018-11-20T06:04:26.710Z,7.40
2018-11-20T06:07:00.625Z,7.25
2018-11-20T06:10:10.778Z,6.92
2018-11-20T06:13:14.913Z,6.90
2018-11-20T06:15:54.733Z,6.68
2018-11-20T06:18:34.727Z,6.35
2018-11-20T06:21:16.675Z,6.31
2018-11-20T06:23:55.635Z,7.40
2018-11-20T06:26:47.717Z,7.15
2018-11-20T06:29:21.818Z,7.26
2018-11-20T06:31:55.805Z,6.93
2018-11-20T06:34:30.710Z,6.30
2018-11-20T06:37:22.929Z,6.10
2018-11-20T06:40:05.893Z,5.77
2018-11-20T06:42:39.882Z,5.76
2018-11-20T06:45:13.969Z,5.99
2018-11-20T06:49:51.333Z,5.89
2018-11-20T06:54:30.922Z,6.16
2018-11-20T06:57:04.839Z,6.20
2018-11-20T06:59:38.901Z,6.05
2018-11-20T07:02:18.712Z,5.84
2018-11-20T07:05:09.740Z,5.43
2018-11-20T07:07:45.685Z,5.41
2018-11-20T07:10:19.580Z,5.38
2018-11-20T07:13:00.496Z,5.27
2018-11-20T07:15:39.637Z,5.21
2018-11-20T07:19:14.042Z,5.16
2018-11-20T07:21:52.944Z,5.54
2018-11-20T07:24:31.088Z,5.72
2018-11-20T07:27:12.158Z,5.83
2018-11-20T07:30:17.465Z,5.73
2018-11-20T07:33:05.587Z,5.45
2018-11-20T07:35:47.697Z,5.57
2018-11-20T07:40:23.695Z,5.58
2018-11-20T07:43:03.573Z,5.62
2018-11-20T07:45:45.626Z,5.95
2018-11-20T07:48:19.636Z,6.37
2018-11-20T07:50:53.857Z,7.20
2018-11-20T07:53:27.924Z,7.42
2018-11-20T07:58:05.381Z,7.44
2018-11-20T08:00:42.296Z,7.64
2018-11-20T08:03:19.124Z,8.06
2018-11-20T08:05:58.171Z,8.34
2018-11-20T08:08:36.209Z,8.42
2018-11-20T08:11:10.382Z,8.89
2018-11-20T08:14:03.624Z,8.60
2018-11-20T08:16:44.790Z,8.91
2018-11-20T08:20:17.497Z,9.32
2018-11-20T08:23:09.811Z,8.07
2018-11-20T08:25:58.085Z,7.34
2018-11-20T08:30:37.725Z,6.98
2018-11-20T08:33:20.777Z,6.93
2018-11-20T08:35:54.992Z,7.74
2018-11-20T08:38:49.403Z,7.50
2018-11-20T08:43:28.199Z,7.71
2018-11-20T08:47:02.846Z,8.30
2018-11-20T08:51:39.547Z,7.83
2018-11-20T08:54:13.570Z,7.43
2018-11-20T08:56:50.016Z,7.49
2018-11-20T08:59:24.993Z,7.14
2018-11-20T09:01:59.158Z,6.82
2018-11-20T09:04:36.639Z,6.79
2018-11-20T09:08:17.365Z,7.70
2018-11-20T09:10:50.451Z,8.38
2018-11-20T09:15:27.122Z,8.28
2018-11-20T09:20:07.426Z,8.05
2018-11-20T09:22:46.491Z,8.89
2018-11-20T09:25:20.456Z,8.59
2018-11-20T09:28:56.488Z,8.35
2018-11-20T09:32:33.165Z,8.71
2018-11-20T09:37:17.274Z,9.04
2018-11-20T09:40:00.805Z,8.92
2018-11-20T09:42:35.933Z,9.16
2018-11-20T09:45:58.818Z,8.83
2018-11-20T09:49:31.311Z,8.58
2018-11-20T09:52:11.933Z,8.83
2018-11-20T09:56:49.129Z,9.11
2018-11-20T10:01:25.685Z,9.08
2018-11-20T10:03:58.831Z,9.14
2018-11-20T10:06:36.699Z,9.38
2018-11-20T10:10:13.520Z,9.48
2018-11-20T10:13:02.454Z,9.54
2018-11-20T10:15:36.386Z,9.24
2018-11-20T10:19:14.337Z,9.35
2018-11-20T10:25:00.788Z,9.13
2018-11-20T10:27:34.754Z,9.73
2018-11-20T10:31:06.652Z,9.31
2018-11-20T10:34:38.517Z,9.60
2018-11-20T10:37:17.489Z,9.94
2018-11-20T10:40:27.583Z,10.05
2018-11-20T10:43:01.668Z,10.01
2018-11-20T10:45:40.711Z,9.81
2018-11-20T10:48:14.789Z,9.46
2018-11-20T10:50:49.660Z,9.51
2018-11-20T10:53:27.597Z,9.33
2018-11-20T10:58:05.940Z,9.80
2018-11-20T11:00:40.924Z,10.55
2018-11-20T11:03:15.064Z,9.65
2018-11-20T11:05:49.167Z,9.72
2018-11-20T11:08:23.293Z,9.91
2018-11-20T11:10:56.408Z,9.60
2018-11-20T11:15:36.169Z,9.80
2018-11-20T11:18:19.275Z,10.35
2018-11-20T11:20:55.352Z,8.99
2018-11-20T11:23:41.342Z,8.76
2018-11-20T11:26:15.263Z,10.10
2018-11-20T11:28:54.101Z,10.04
2018-11-20T11:31:29.931Z,10.23
2018-11-20T11:34:10.780Z,10.05
2018-11-20T11:36:56.837Z,9.53
2018-11-20T11:39:34.225Z,10.03
2018-11-20T11:43:08.769Z,9.89
2018-11-20T11:45:48.816Z,9.26
2018-11-20T11:48:22.935Z,8.99
2018-11-20T11:51:57.454Z,8.98
2018-11-20T11:54:31.538Z,8.84
2018-11-20T11:57:06.172Z,8.88
2018-11-20T11:59:41.316Z,8.60
